sensor_id;sensor_type;location;lat;lon;timestamp;pressure;altitude;pressure_sealevel;temperature;humidity
47763;BME280;33526;42.690;23.322;2024-01-25T00:00:47;95408.59;;;1.10;100.00
47763;BME280;33526;42.690;23.322;2024-01-25T00:03:36;95559.00;;;2.07;100.00
47763;BME280;33526;42.690;23.322;2024-01-25T00:06:07;95524.38;;;1.99;100.00
47763;BME280;33526;42.690;23.322;2024-01-25T00:08:43;95638.25;;;2.84;100.00
47763;BME280;33526;42.690;23.322;2024-01-25T00:11:12;95541.13;;;2.37;100.00
47763;BME280;33526;42.690;23.322;2024-01-25T00:13:37;95631.91;;;2.87;100.00
47763;BME280;33526;42.690;23.322;2024-01-25T00:16:05;95609.03;;;2.86;100.00
47763;BME280;33526;42.690;23.322;2024-01-25T00:18:32;95375.81;;;1.41;100.00
47763;BME280;33526;42.690;23.322;2024-01-25T00:20:59;95291.00;;;1.00;100.00
47763;BME280;33526;42.690;23.322;2024-01-25T00:23:24;95482.84;;;2.27;100.00
47763;BME280;33526;42.690;23.322;2024-01-25T00:25:50;95389.91;;;1.54;100.00
47763;BME280;33526;42.690;23.322;2024-01-25T00:28:18;95277.72;;;0.77;100.00
47763;BME280;33526;42.690;23.322;2024-01-25T00:30:45;95565.78;;;2.65;100.00
47763;BME280;33526;42.690;23.322;2024-01-25T00:33:11;95402.13;;;1.46;100.00
47763;BME280;33526;42.690;23.322;2024-01-25T00:35:37;95422.16;;;1.61;100.00
47763;BME280;33526;42.690;23.322;2024-01-25T00:38:03;95280.09;;;0.79;100.00
47763;BME280;33526;42.690;23.322;2024-01-25T00:40:29;95488.03;;;2.15;100.00
47763;BME280;33526;42.690;23.322;2024-01-25T00:45:46;95393.59;;;1.92;100.00
47763;BME280;33526;42.690;23.322;2024-01-25T00:52:08;95496.56;;;2.87;100.00
47763;BME280;33526;42.690;23.322;2024-01-25T00:57:36;95543.03;;;2.99;100.00
47763;BME280;33526;42.690;23.322;2024-01-25T01:18:56;95525.25;;;3.00;100.00
47763;BME280;33526;42.690;23.322;2024-01-25T06:00:37;95425.69;;;4.82;90.08
47763;BME280;33526;42.690;23.322;2024-01-25T06:03:30;95335.19;;;4.04;90.98
47763;BME280;33526;42.690;23.322;2024-01-25T06:06:08;95358.53;;;4.27;89.98
47763;BME280;33526;42.690;23.322;2024-01-25T06:08:33;95362.09;;;4.27;90.68
47763;BME280;33526;42.690;23.322;2024-01-25T06:11:00;95275.59;;;3.72;88.90
47763;BME280;33526;42.690;23.322;2024-01-25T06:13:25;95352.22;;;4.26;90.20
47763;BME280;33526;42.690;23.322;2024-01-25T06:15:54;95369.25;;;4.25;89.84
47763;BME280;33526;42.690;23.322;2024-01-25T06:18:22;95521.41;;;5.10;91.55
47763;BME280;33526;42.690;23.322;2024-01-25T06:21:02;95448.75;;;4.75;91.52
47763;BME280;33526;42.690;23.322;2024-01-25T06:23:49;95413.31;;;4.39;91.51
47763;BME280;33526;42.690;23.322;2024-01-25T06:26:44;95424.03;;;4.37;92.51
47763;BME280;33526;42.690;23.322;2024-01-25T14:24:44;95093.50;;;5.36;66.10
47763;BME280;33526;42.690;23.322;2024-01-25T14:31:36;95197.41;;;5.98;68.59
47763;BME280;33526;42.690;23.322;2024-01-25T14:35:11;95311.53;;;6.65;68.67
47763;BME280;33526;42.690;23.322;2024-01-25T14:40:34;95316.31;;;6.65;67.45
47763;BME280;33526;42.690;23.322;2024-01-25T15:26:33;95331.41;;;6.64;67.04
47763;BME280;33526;42.690;23.322;2024-01-25T16:53:20;95405.22;;;6.32;81.14
47763;BME280;33526;42.690;23.322;2024-01-25T16:56:11;95236.53;;;5.17;80.00
47763;BME280;33526;42.690;23.322;2024-01-25T17:04:39;95429.75;;;6.17;83.73
47763;BME280;33526;42.690;23.322;2024-01-25T17:12:59;95299.38;;;5.24;84.10
47763;BME280;33526;42.690;23.322;2024-01-25T17:15:51;95250.41;;;4.97;83.88
47763;BME280;33526;42.690;23.322;2024-01-25T17:18:19;95370.03;;;5.72;84.78
47763;BME280;33526;42.690;23.322;2024-01-25T17:21:02;95221.72;;;4.68;86.60
47763;BME280;33526;42.690;23.322;2024-01-25T17:23:30;95222.59;;;4.65;88.02
47763;BME280;33526;42.690;23.322;2024-01-25T17:26:03;95194.38;;;4.50;89.21
47763;BME280;33526;42.690;23.322;2024-01-25T17:28:41;95339.78;;;5.42;89.91
47763;BME280;33526;42.690;23.322;2024-01-25T17:31:09;95432.28;;;5.91;91.67
47763;BME280;33526;42.690;23.322;2024-01-25T17:33:38;95311.31;;;5.21;91.83
47763;BME280;33526;42.690;23.322;2024-01-25T17:36:45;95437.34;;;5.97;91.83
47763;BME280;33526;42.690;23.322;2024-01-25T17:39:12;95224.72;;;4.57;92.51
47763;BME280;33526;42.690;23.322;2024-01-25T17:41:40;95365.94;;;5.61;90.96
47763;BME280;33526;42.690;23.322;2024-01-25T17:44:06;95430.50;;;6.01;91.22
47763;BME280;33526;42.690;23.322;2024-01-25T17:46:36;95361.47;;;5.47;89.68
47763;BME280;33526;42.690;23.322;2024-01-25T17:49:12;95234.03;;;4.67;89.01
47763;BME280;33526;42.690;23.322;2024-01-25T17:51:39;95319.41;;;5.12;89.36
47763;BME280;33526;42.690;23.322;2024-01-25T17:54:06;95310.59;;;5.17;89.33
47763;BME280;33526;42.690;23.322;2024-01-25T17:56:38;95259.81;;;4.84;88.89
47763;BME280;33526;42.690;23.322;2024-01-25T17:59:32;95365.81;;;5.48;89.05
47763;BME280;33526;42.690;23.322;2024-01-25T18:02:37;95307.09;;;5.13;89.69
47763;BME280;33526;42.690;23.322;2024-01-25T18:20:36;95209.19;;;4.43;87.39
47763;BME280;33526;42.690;23.322;2024-01-25T18:23:05;95415.78;;;5.84;88.74
47763;BME280;33526;42.690;23.322;2024-01-25T18:25:39;95331.56;;;5.18;86.49
47763;BME280;33526;42.690;23.322;2024-01-25T18:28:09;95298.50;;;5.07;86.79
47763;BME280;33526;42.690;23.322;2024-01-25T18:31:33;95209.25;;;4.39;86.16
47763;BME280;33526;42.690;23.322;2024-01-25T18:34:01;95276.63;;;4.73;86.14
47763;BME280;33526;42.690;23.322;2024-01-25T18:36:29;95277.44;;;4.93;87.05
47763;BME280;33526;42.690;23.322;2024-01-25T18:39:30;95226.97;;;4.42;86.14
47763;BME280;33526;42.690;23.322;2024-01-25T18:53:17;95228.34;;;4.54;83.65
47763;BME280;33526;42.690;23.322;2024-01-25T18:56:45;95278.00;;;4.85;86.83
47763;BME280;33526;42.690;23.322;2024-01-25T18:59:50;95419.97;;;5.72;81.83
47763;BME280;33526;42.690;23.322;2024-01-25T19:02:40;95431.72;;;5.80;81.01
47763;BME280;33526;42.690;23.322;2024-01-25T19:05:08;95432.16;;;5.79;80.00
47763;BME280;33526;42.690;23.322;2024-01-25T19:07:37;95195.75;;;4.21;81.22
47763;BME280;33526;42.690;23.322;2024-01-25T19:10:06;95351.09;;;5.31;78.97
47763;BME280;33526;42.690;23.322;2024-01-25T19:12:32;95183.72;;;4.28;78.55
47763;BME280;33526;42.690;23.322;2024-01-25T19:15:01;95187.31;;;4.29;77.45
47763;BME280;33526;42.690;23.322;2024-01-25T19:17:31;95279.63;;;4.82;78.75
47763;BME280;33526;42.690;23.322;2024-01-25T19:19:58;95415.41;;;5.82;77.50
47763;BME280;33526;42.690;23.322;2024-01-25T19:22:57;95229.13;;;4.54;78.07
47763;BME280;33526;42.690;23.322;2024-01-25T19:26:20;95411.94;;;5.78;77.64
47763;BME280;33526;42.690;23.322;2024-01-25T19:29:39;95227.69;;;4.46;77.51
47763;BME280;33526;42.690;23.322;2024-01-25T19:32:45;95379.25;;;5.49;77.03
47763;BME280;33526;42.690;23.322;2024-01-25T19:35:16;95347.34;;;5.21;77.18
47763;BME280;33526;42.690;23.322;2024-01-25T19:38:16;95330.00;;;4.97;78.73
47763;BME280;33526;42.690;23.322;2024-01-25T19:41:11;95311.03;;;4.95;78.93
47763;BME280;33526;42.690;23.322;2024-01-25T19:43:37;95383.09;;;5.35;78.41
47763;BME280;33526;42.690;23.322;2024-01-25T19:46:13;95334.25;;;5.02;80.16
47763;BME280;33526;42.690;23.322;2024-01-25T19:48:46;95220.78;;;4.14;81.36
47763;BME280;33526;42.690;23.322;2024-01-25T19:51:36;95295.31;;;4.69;80.14
47763;BME280;33526;42.690;23.322;2024-01-25T19:54:36;95275.56;;;4.67;80.29
47763;BME280;33526;42.690;23.322;2024-01-25T19:57:20;95175.31;;;3.92;80.74
47763;BME280;33526;42.690;23.322;2024-01-25T20:03:11;95409.97;;;5.39;83.63
47763;BME280;33526;42.690;23.322;2024-01-25T20:05:58;95359.00;;;4.92;83.40
47763;BME280;33526;42.690;23.322;2024-01-25T20:08:25;95337.66;;;4.89;84.03
47763;BME280;33526;42.690;23.322;2024-01-25T20:11:01;95262.63;;;4.40;84.47
47763;BME280;33526;42.690;23.322;2024-01-25T20:13:31;95413.53;;;5.39;84.83
47763;BME280;33526;42.690;23.322;2024-01-25T20:15:59;95200.56;;;3.94;84.57
47763;BME280;33526;42.690;23.322;2024-01-25T20:18:33;95406.13;;;5.32;85.55
47763;BME280;33526;42.690;23.322;2024-01-25T20:21:01;95381.44;;;5.18;86.24
47763;BME280;33526;42.690;23.322;2024-01-25T20:29:44;95409.53;;;5.20;85.50
47763;BME280;33526;42.690;23.322;2024-01-25T20:32:10;95387.13;;;5.11;85.75
47763;BME280;33526;42.690;23.322;2024-01-25T20:34:36;95419.91;;;5.36;85.20
47763;BME280;33526;42.690;23.322;2024-01-25T20:37:01;95393.56;;;5.08;85.80
47763;BME280;33526;42.690;23.322;2024-01-25T20:39:27;95397.88;;;5.09;85.53
47763;BME280;33526;42.690;23.322;2024-01-25T20:41:53;95233.00;;;3.93;86.63
47763;BME280;33526;42.690;23.322;2024-01-25T20:44:20;95317.47;;;4.69;84.60
47763;BME280;33526;42.690;23.322;2024-01-25T20:46:45;95446.03;;;5.39;84.42
47763;BME280;33526;42.690;23.322;2024-01-25T20:49:13;95214.28;;;4.01;83.29
47763;BME280;33526;42.690;23.322;2024-01-25T20:51:39;95342.97;;;4.80;82.55
47763;BME280;33526;42.690;23.322;2024-01-25T20:54:06;95411.81;;;5.25;83.03
47763;BME280;33526;42.690;23.322;2024-01-25T20:56:34;95404.56;;;5.11;83.48
47763;BME280;33526;42.690;23.322;2024-01-25T20:58:59;95419.06;;;5.19;82.45
47763;BME280;33526;42.690;23.322;2024-01-25T21:01:27;95410.88;;;5.12;83.13
47763;BME280;33526;42.690;23.322;2024-01-25T21:03:54;95326.41;;;4.56;82.23
47763;BME280;33526;42.690;23.322;2024-01-25T21:06:20;95320.34;;;4.42;81.96
47763;BME280;33526;42.690;23.322;2024-01-25T21:08:48;95326.66;;;4.42;82.50
47763;BME280;33526;42.690;23.322;2024-01-25T21:11:15;95278.91;;;4.14;81.84
47763;BME280;33526;42.690;23.322;2024-01-25T21:13:41;95309.44;;;4.31;82.96
47763;BME280;33526;42.690;23.322;2024-01-25T21:16:11;95361.69;;;4.52;83.56
47763;BME280;33526;42.690;23.322;2024-01-25T21:18:37;95371.28;;;4.68;81.05
47763;BME280;33526;42.690;23.322;2024-01-25T21:21:03;95403.22;;;4.76;80.49
47763;BME280;33526;42.690;23.322;2024-01-25T21:23:29;95429.59;;;4.84;81.14
47763;BME280;33526;42.690;23.322;2024-01-25T21:25:57;95364.47;;;4.52;80.63
47763;BME280;33526;42.690;23.322;2024-01-25T21:28:23;95422.38;;;4.90;80.75
47763;BME280;33526;42.690;23.322;2024-01-25T21:31:07;95391.16;;;4.63;81.05
47763;BME280;33526;42.690;23.322;2024-01-25T21:33:34;95338.97;;;4.14;80.50
47763;BME280;33526;42.690;23.322;2024-01-25T21:35:59;95246.63;;;3.57;80.82
47763;BME280;33526;42.690;23.322;2024-01-25T21:38:25;95434.41;;;4.80;81.22
47763;BME280;33526;42.690;23.322;2024-01-25T21:40:52;95434.41;;;4.80;79.77
47763;BME280;33526;42.690;23.322;2024-01-25T21:43:17;95373.38;;;4.40;81.20
47763;BME280;33526;42.690;23.322;2024-01-25T21:45:43;95399.72;;;4.48;80.35
47763;BME280;33526;42.690;23.322;2024-01-25T21:48:08;95365.81;;;4.17;80.69
47763;BME280;33526;42.690;23.322;2024-01-25T21:50:37;95413.88;;;4.54;81.33
47763;BME280;33526;42.690;23.322;2024-01-25T21:53:03;95374.38;;;4.26;81.48
47763;BME280;33526;42.690;23.322;2024-01-25T21:55:28;95312.19;;;3.83;80.96
47763;BME280;33526;42.690;23.322;2024-01-25T21:57:54;95408.03;;;4.48;80.15
47763;BME280;33526;42.690;23.322;2024-01-25T22:00:20;95389.50;;;4.21;79.98
47763;BME280;33526;42.690;23.322;2024-01-25T22:02:46;95363.53;;;4.12;80.08
47763;BME280;33526;42.690;23.322;2024-01-25T22:05:14;95438.00;;;4.53;81.34
47763;BME280;33526;42.690;23.322;2024-01-25T22:07:49;95370.81;;;4.02;80.04
47763;BME280;33526;42.690;23.322;2024-01-25T22:10:15;95446.78;;;4.48;78.99
47763;BME280;33526;42.690;23.322;2024-01-25T22:12:41;95404.09;;;4.22;78.74
47763;BME280;33526;42.690;23.322;2024-01-25T22:15:06;95283.97;;;3.41;80.18
47763;BME280;33526;42.690;23.322;2024-01-25T22:17:33;95422.66;;;4.25;80.53
47763;BME280;33526;42.690;23.322;2024-01-25T22:19:59;95388.59;;;4.01;80.52
47763;BME280;33526;42.690;23.322;2024-01-25T22:22:26;95360.78;;;3.85;79.30
47763;BME280;33526;42.690;23.322;2024-01-25T22:24:51;95228.94;;;2.96;80.27
47763;BME280;33526;42.690;23.322;2024-01-25T22:27:18;95277.81;;;3.30;80.57
47763;BME280;33526;42.690;23.322;2024-01-25T22:29:44;95315.50;;;3.48;81.78
47763;BME280;33526;42.690;23.322;2024-01-25T22:32:10;95299.19;;;3.26;80.67
47763;BME280;33526;42.690;23.322;2024-01-25T22:34:37;95461.25;;;4.36;79.88
47763;BME280;33526;42.690;23.322;2024-01-25T22:37:03;95452.13;;;4.35;78.65
47763;BME280;33526;42.690;23.322;2024-01-25T22:39:32;95460.78;;;4.37;78.89
47763;BME280;33526;42.690;23.322;2024-01-25T22:41:59;95344.50;;;3.63;79.54
47763;BME280;33526;42.690;23.322;2024-01-25T22:44:26;95395.88;;;3.91;79.29
47763;BME280;33526;42.690;23.322;2024-01-25T22:46:52;95318.34;;;3.40;79.23
47763;BME280;33526;42.690;23.322;2024-01-25T22:49:21;95395.44;;;3.93;79.90
47763;BME280;33526;42.690;23.322;2024-01-25T22:51:48;95446.97;;;4.37;79.49
47763;BME280;33526;42.690;23.322;2024-01-25T22:54:14;95359.13;;;3.91;78.23
47763;BME280;33526;42.690;23.322;2024-01-25T22:56:40;95315.41;;;3.55;79.39
47763;BME280;33526;42.690;23.322;2024-01-25T22:59:06;95449.72;;;4.37;79.95
47763;BME280;33526;42.690;23.322;2024-01-25T23:01:32;95453.34;;;4.34;80.85
47763;BME280;33526;42.690;23.322;2024-01-25T23:03:57;95383.13;;;3.97;80.45
47763;BME280;33526;42.690;23.322;2024-01-25T23:06:23;95311.63;;;3.41;80.46
47763;BME280;33526;42.690;23.322;2024-01-25T23:08:49;95345.22;;;3.67;80.14
47763;BME280;33526;42.690;23.322;2024-01-25T23:11:14;95338.59;;;3.61;79.31
47763;BME280;33526;42.690;23.322;2024-01-25T23:13:40;95362.56;;;3.71;79.82
47763;BME280;33526;42.690;23.322;2024-01-25T23:16:05;95202.16;;;2.62;78.42
47763;BME280;33526;42.690;23.322;2024-01-25T23:18:31;95267.06;;;3.09;78.74
47763;BME280;33526;42.690;23.322;2024-01-25T23:20:57;95317.50;;;3.43;79.19
47763;BME280;33526;42.690;23.322;2024-01-25T23:23:24;95322.66;;;3.41;78.45
47763;BME280;33526;42.690;23.322;2024-01-25T23:25:49;95324.81;;;3.57;77.83
47763;BME280;33526;42.690;23.322;2024-01-25T23:28:15;95407.84;;;4.08;77.56
47763;BME280;33526;42.690;23.322;2024-01-25T23:30:40;95311.97;;;3.43;77.02
47763;BME280;33526;42.690;23.322;2024-01-25T23:33:06;95405.59;;;3.99;77.66
47763;BME280;33526;42.690;23.322;2024-01-25T23:35:32;95419.66;;;4.12;76.79
47763;BME280;33526;42.690;23.322;2024-01-25T23:37:57;95280.69;;;3.23;76.64
47763;BME280;33526;42.690;23.322;2024-01-25T23:40:23;95417.31;;;4.11;76.72
47763;BME280;33526;42.690;23.322;2024-01-25T23:42:48;95312.72;;;3.48;75.77
47763;BME280;33526;42.690;23.322;2024-01-25T23:45:14;95433.66;;;4.29;76.34
47763;BME280;33526;42.690;23.322;2024-01-25T23:47:39;95402.69;;;4.10;74.85
47763;BME280;33526;42.690;23.322;2024-01-25T23:50:08;95415.13;;;4.26;75.15
47763;BME280;33526;42.690;23.322;2024-01-25T23:52:34;95439.88;;;4.36;75.79
47763;BME280;33526;42.690;23.322;2024-01-25T23:55:00;95359.22;;;3.83;74.91
47763;BME280;33526;42.690;23.322;2024-01-25T23:57:25;95311.41;;;3.56;74.39
47763;BME280;33526;42.690;23.322;2024-01-25T23:59:50;95371.38;;;3.90;74.33
